BEL9NK EDDB-EBBR
Flight info
| Callsign | BEL9NK |
|---|---|
| Flight time | N/A |
| Altitude | 36000 |
| Route | LOGDO DCT MAG Z92 ABGUS DCT TOLTA DCT ABAMI Z717 NEREL T855 BATTY |
| Aircraft | A320/M-DE3FGHIJ1LORVWY/H |
Departure
| Time | 2026-05-04 18:52 |
|---|---|
| Airport | Berlin Brandenburg Airport (EDDB) |
Arrival
| Time | N/A |
|---|---|
| Airport | Brussels Airport (EBBR) |
| Time | Latitude | Longitude | Altitude | Speed | Heading |
|---|---|---|---|---|---|
| 2026-05-04 18:17 | 52.36138 | 13.50753 | 155 ft | 0 kts | 69° |
| 2026-05-04 18:43 | 52.36132 | 13.50727 | 155 ft | 4 kts | 69° |
| 2026-05-04 18:44 | 52.36125 | 13.50695 | 155 ft | 4 kts | 69° |
| 2026-05-04 18:44 | 52.36118 | 13.50669 | 155 ft | 3 kts | 69° |
| 2026-05-04 18:44 | 52.36099 | 13.50631 | 154 ft | 4 kts | 7° |
| 2026-05-04 18:44 | 52.36073 | 13.50635 | 154 ft | 4 kts | 341° |
| 2026-05-04 18:45 | 52.36048 | 13.50651 | 154 ft | 3 kts | 338° |
| 2026-05-04 18:45 | 52.36045 | 13.50653 | 154 ft | 1 kts | 339° |
| 2026-05-04 18:48 | 52.36047 | 13.50652 | 154 ft | 2 kts | 339° |
| 2026-05-04 18:48 | 52.36055 | 13.50614 | 154 ft | 4 kts | 251° |
| 2026-05-04 18:48 | 52.36014 | 13.50591 | 154 ft | 10 kts | 167° |
| 2026-05-04 18:49 | 52.35945 | 13.50634 | 154 ft | 10 kts | 159° |
| 2026-05-04 18:49 | 52.35894 | 13.50699 | 154 ft | 10 kts | 123° |
| 2026-05-04 18:49 | 52.35836 | 13.50785 | 154 ft | 14 kts | 160° |
| 2026-05-04 18:49 | 52.35742 | 13.50837 | 154 ft | 13 kts | 169° |
| 2026-05-04 18:50 | 52.35658 | 13.50790 | 154 ft | 17 kts | 218° |
| 2026-05-04 18:50 | 52.35534 | 13.50627 | 154 ft | 29 kts | 218° |
| 2026-05-04 18:50 | 52.35443 | 13.50496 | 154 ft | 13 kts | 227° |
| 2026-05-04 18:50 | 52.35376 | 13.50347 | 154 ft | 20 kts | 255° |
| 2026-05-04 18:51 | 52.35333 | 13.50169 | 154 ft | 23 kts | 250° |
| 2026-05-04 18:51 | 52.35217 | 13.49683 | 154 ft | 80 kts | 249° |
| 2026-05-04 18:51 | 52.34939 | 13.48515 | 154 ft | 138 kts | 249° |
| 2026-05-04 18:51 | 52.34532 | 13.46851 | 411 ft | 162 kts | 249° |
| 2026-05-04 18:52 | 52.34072 | 13.45212 | 1144 ft | 159 kts | 236° |
| 2026-05-04 18:52 | 52.33343 | 13.43830 | 1809 ft | 162 kts | 230° |
| 2026-05-04 18:52 | 52.32578 | 13.42436 | 2403 ft | 166 kts | 230° |
| 2026-05-04 18:52 | 52.31810 | 13.41019 | 3052 ft | 166 kts | 231° |
| 2026-05-04 18:53 | 52.31036 | 13.39580 | 3604 ft | 175 kts | 230° |
| 2026-05-04 18:53 | 52.30182 | 13.37992 | 3913 ft | 197 kts | 229° |
| 2026-05-04 18:53 | 52.29226 | 13.36218 | 4203 ft | 218 kts | 229° |
| 2026-05-04 18:53 | 52.28189 | 13.34293 | 4755 ft | 230 kts | 229° |
| 2026-05-04 18:54 | 52.27137 | 13.32283 | 5484 ft | 240 kts | 235° |
| 2026-05-04 18:54 | 52.26468 | 13.29669 | 5949 ft | 260 kts | 255° |
| 2026-05-04 18:54 | 52.26000 | 13.26780 | 6750 ft | 265 kts | 255° |
| 2026-05-04 18:54 | 52.25518 | 13.23853 | 7606 ft | 269 kts | 254° |
| 2026-05-04 18:55 | 52.25025 | 13.20894 | 8500 ft | 271 kts | 254° |
| 2026-05-04 18:55 | 52.24023 | 13.14910 | 10218 ft | 279 kts | 254° |
| 2026-05-04 18:55 | 52.23491 | 13.11736 | 10521 ft | 302 kts | 254° |
| 2026-05-04 18:56 | 52.22919 | 13.08324 | 10884 ft | 320 kts | 254° |
| 2026-05-04 18:56 | 52.22325 | 13.04790 | 11556 ft | 326 kts | 254° |
| 2026-05-04 18:56 | 52.21720 | 13.01210 | 12307 ft | 330 kts | 254° |
| 2026-05-04 18:56 | 52.21106 | 12.97588 | 13053 ft | 333 kts | 254° |
| 2026-05-04 18:57 | 52.20483 | 12.93929 | 13790 ft | 337 kts | 253° |
| 2026-05-04 18:57 | 52.19853 | 12.90237 | 14441 ft | 340 kts | 254° |
| 2026-05-04 18:57 | 52.19216 | 12.86496 | 15054 ft | 345 kts | 254° |
| 2026-05-04 18:57 | 52.18571 | 12.82710 | 15716 ft | 348 kts | 254° |
| 2026-05-04 18:58 | 52.17920 | 12.78903 | 16373 ft | 350 kts | 253° |
| 2026-05-04 18:58 | 52.17260 | 12.75066 | 17020 ft | 353 kts | 253° |
| 2026-05-04 18:58 | 52.16594 | 12.71203 | 17677 ft | 356 kts | 253° |
| 2026-05-04 18:58 | 52.15922 | 12.67308 | 18303 ft | 359 kts | 253° |
| 2026-05-04 18:59 | 52.15244 | 12.63380 | 18862 ft | 361 kts | 253° |
| 2026-05-04 18:59 | 52.14571 | 12.59487 | 19420 ft | 363 kts | 253° |
| 2026-05-04 18:59 | 52.13886 | 12.55526 | 19986 ft | 365 kts | 253° |
| 2026-05-04 18:59 | 52.13195 | 12.51542 | 20541 ft | 367 kts | 253° |
| 2026-05-04 19:00 | 52.12498 | 12.47540 | 21091 ft | 368 kts | 253° |
| 2026-05-04 19:00 | 52.11797 | 12.43522 | 21641 ft | 370 kts | 253° |
| 2026-05-04 19:00 | 52.11091 | 12.39485 | 22167 ft | 372 kts | 253° |
| 2026-05-04 19:00 | 52.10380 | 12.35425 | 22708 ft | 374 kts | 253° |
| 2026-05-04 19:01 | 52.09666 | 12.31348 | 23224 ft | 376 kts | 253° |
| 2026-05-04 19:01 | 52.08945 | 12.27248 | 23693 ft | 378 kts | 253° |
| 2026-05-04 19:01 | 52.08220 | 12.23129 | 24111 ft | 380 kts | 253° |
| 2026-05-04 19:01 | 52.07489 | 12.18987 | 24528 ft | 382 kts | 253° |
| 2026-05-04 19:02 | 52.06753 | 12.14832 | 24931 ft | 384 kts | 253° |
| 2026-05-04 19:02 | 52.06013 | 12.10663 | 25339 ft | 385 kts | 253° |
| 2026-05-04 19:02 | 52.05266 | 12.06472 | 25736 ft | 387 kts | 252° |
| 2026-05-04 19:02 | 52.04514 | 12.02260 | 26121 ft | 389 kts | 252° |
| 2026-05-04 19:03 | 52.03756 | 11.98031 | 26510 ft | 391 kts | 252° |
| 2026-05-04 19:03 | 52.02992 | 11.93790 | 26891 ft | 393 kts | 252° |
| 2026-05-04 19:03 | 52.02220 | 11.89524 | 27272 ft | 395 kts | 252° |
| 2026-05-04 19:03 | 52.01446 | 11.85240 | 27648 ft | 396 kts | 252° |
| 2026-05-04 19:04 | 52.00669 | 11.80938 | 28030 ft | 398 kts | 252° |
| 2026-05-04 19:04 | 51.99886 | 11.76607 | 28364 ft | 401 kts | 252° |
| 2026-05-04 19:04 | 51.99099 | 11.72257 | 28715 ft | 403 kts | 252° |
| 2026-05-04 19:04 | 51.98303 | 11.67886 | 29056 ft | 405 kts | 252° |
| 2026-05-04 19:05 | 51.97490 | 11.63445 | 29406 ft | 407 kts | 252° |
| 2026-05-04 19:05 | 51.96694 | 11.59098 | 29732 ft | 408 kts | 252° |
| 2026-05-04 19:05 | 51.95882 | 11.54670 | 30047 ft | 410 kts | 252° |
| 2026-05-04 19:05 | 51.95067 | 11.50228 | 30288 ft | 412 kts | 252° |
| 2026-05-04 19:06 | 51.94245 | 11.45768 | 30549 ft | 414 kts | 252° |
| 2026-05-04 19:06 | 51.93418 | 11.41296 | 30813 ft | 415 kts | 252° |
| 2026-05-04 19:06 | 51.92586 | 11.36805 | 31077 ft | 417 kts | 252° |
| 2026-05-04 19:06 | 51.91752 | 11.32308 | 31419 ft | 416 kts | 252° |
| 2026-05-04 19:07 | 51.90921 | 11.27833 | 31812 ft | 414 kts | 252° |
| 2026-05-04 19:07 | 51.90093 | 11.23378 | 32240 ft | 412 kts | 252° |
| 2026-05-04 19:07 | 51.89266 | 11.18943 | 32636 ft | 410 kts | 252° |
| 2026-05-04 19:07 | 51.88438 | 11.14529 | 33014 ft | 409 kts | 252° |
| 2026-05-04 19:08 | 51.87608 | 11.10130 | 33379 ft | 408 kts | 252° |
| 2026-05-04 19:08 | 51.86797 | 11.05738 | 33737 ft | 407 kts | 255° |
| 2026-05-04 19:08 | 51.86254 | 11.01239 | 34078 ft | 407 kts | 258° |
| 2026-05-04 19:08 | 51.85771 | 10.96795 | 34364 ft | 407 kts | 258° |
| 2026-05-04 19:09 | 51.85276 | 10.92286 | 34637 ft | 407 kts | 258° |
| 2026-05-04 19:09 | 51.84777 | 10.87784 | 34896 ft | 407 kts | 258° |
| 2026-05-04 19:09 | 51.84274 | 10.83277 | 35141 ft | 407 kts | 258° |
| 2026-05-04 19:09 | 51.83768 | 10.78772 | 35380 ft | 408 kts | 258° |
| 2026-05-04 19:10 | 51.83260 | 10.74262 | 35632 ft | 408 kts | 258° |
| 2026-05-04 19:10 | 51.82749 | 10.69756 | 35883 ft | 408 kts | 258° |
| 2026-05-04 19:10 | 51.81724 | 10.60759 | 35978 ft | 406 kts | 258° |
| 2026-05-04 19:11 | 51.80702 | 10.51796 | 35982 ft | 406 kts | 258° |
| 2026-05-04 19:11 | 51.79672 | 10.42838 | 35981 ft | 406 kts | 258° |
| 2026-05-04 19:12 | 51.78117 | 10.29404 | 35989 ft | 406 kts | 258° |
| 2026-05-04 19:13 | 51.77076 | 10.20512 | 36000 ft | 406 kts | 257° |
| 2026-05-04 19:13 | 51.76013 | 10.11518 | 35997 ft | 405 kts | 257° |
| 2026-05-04 19:14 | 51.74951 | 10.02590 | 35988 ft | 405 kts | 257° |
| 2026-05-04 19:14 | 51.73886 | 9.93674 | 35990 ft | 405 kts | 257° |
| 2026-05-04 19:15 | 51.72826 | 9.84820 | 35993 ft | 405 kts | 257° |
| 2026-05-04 19:15 | 51.71749 | 9.75920 | 35991 ft | 404 kts | 257° |
| 2026-05-04 19:16 | 51.70666 | 9.67025 | 36010 ft | 404 kts | 257° |
| 2026-05-04 19:16 | 51.69563 | 9.58134 | 36007 ft | 404 kts | 256° |
| 2026-05-04 19:17 | 51.68463 | 9.49257 | 36003 ft | 404 kts | 257° |
| 2026-05-04 19:17 | 51.67475 | 9.40340 | 36002 ft | 404 kts | 258° |
| 2026-05-04 19:18 | 51.66549 | 9.31429 | 35971 ft | 404 kts | 258° |
| 2026-05-04 19:18 | 51.65595 | 9.22499 | 35973 ft | 405 kts | 258° |
| 2026-05-04 19:19 | 51.64611 | 9.13567 | 35984 ft | 405 kts | 257° |
| 2026-05-04 19:19 | 51.63620 | 9.04654 | 35990 ft | 405 kts | 257° |
| 2026-05-04 19:20 | 51.62620 | 8.95732 | 35991 ft | 405 kts | 257° |
| 2026-05-04 19:20 | 51.61613 | 8.86823 | 35994 ft | 405 kts | 257° |
| 2026-05-04 19:21 | 51.60601 | 8.77921 | 35999 ft | 405 kts | 257° |
| 2026-05-04 19:21 | 51.59585 | 8.69017 | 36015 ft | 405 kts | 257° |
| 2026-05-04 19:22 | 51.58558 | 8.60123 | 36008 ft | 405 kts | 257° |
| 2026-05-04 19:22 | 51.57705 | 8.52736 | 36005 ft | 405 kts | 257° |
| 2026-05-04 19:23 | 51.56672 | 8.43835 | 36001 ft | 405 kts | 257° |
| 2026-05-04 19:23 | 51.55628 | 8.34948 | 35985 ft | 405 kts | 257° |
| 2026-05-04 19:24 | 51.54578 | 8.26068 | 35988 ft | 405 kts | 257° |
| 2026-05-04 19:24 | 51.53523 | 8.17188 | 36001 ft | 405 kts | 256° |
| 2026-05-04 19:24 | 51.52989 | 8.12737 | 35720 ft | 407 kts | 256° |
| 2026-05-04 19:25 | 51.52447 | 8.08245 | 34833 ft | 412 kts | 256° |
| 2026-05-04 19:25 | 51.51902 | 8.03732 | 34080 ft | 413 kts | 256° |
| 2026-05-04 19:25 | 51.51351 | 7.99207 | 33248 ft | 413 kts | 256° |
| 2026-05-04 19:25 | 51.50805 | 7.94721 | 32785 ft | 406 kts | 256° |
| 2026-05-04 19:26 | 51.50269 | 7.90307 | 32250 ft | 400 kts | 256° |
| 2026-05-04 19:26 | 51.49740 | 7.85959 | 31728 ft | 395 kts | 255° |
| 2026-05-04 19:26 | 51.49216 | 7.81657 | 31209 ft | 390 kts | 255° |
| 2026-05-04 19:26 | 51.48698 | 7.77417 | 30704 ft | 386 kts | 255° |
| 2026-05-04 19:27 | 51.48183 | 7.73223 | 30202 ft | 382 kts | 255° |
| 2026-05-04 19:27 | 51.47666 | 7.69052 | 29684 ft | 378 kts | 255° |
| 2026-05-04 19:27 | 51.47155 | 7.64946 | 29161 ft | 373 kts | 255° |
| 2026-05-04 19:27 | 51.46650 | 7.60896 | 28690 ft | 368 kts | 255° |
| 2026-05-04 19:28 | 51.46153 | 7.56906 | 28218 ft | 363 kts | 255° |
| 2026-05-04 19:28 | 51.45660 | 7.52971 | 27756 ft | 358 kts | 255° |
| 2026-05-04 19:28 | 51.45172 | 7.49083 | 27321 ft | 353 kts | 255° |
| 2026-05-04 19:28 | 51.44688 | 7.45242 | 26876 ft | 349 kts | 255° |
| 2026-05-04 19:29 | 51.44207 | 7.41448 | 26447 ft | 345 kts | 255° |
| 2026-05-04 19:29 | 51.43732 | 7.37697 | 26025 ft | 343 kts | 255° |
| 2026-05-04 19:29 | 51.43256 | 7.33956 | 25617 ft | 342 kts | 255° |
| 2026-05-04 19:29 | 51.42680 | 7.30276 | 25215 ft | 339 kts | 249° |
| 2026-05-04 19:30 | 51.41742 | 7.26823 | 24851 ft | 340 kts | 239° |
| 2026-05-04 19:30 | 51.40412 | 7.23570 | 24687 ft | 356 kts | 232° |
| 2026-05-04 19:30 | 51.38911 | 7.20364 | 24472 ft | 362 kts | 232° |
| 2026-05-04 19:30 | 51.37403 | 7.17128 | 24261 ft | 364 kts | 232° |
| 2026-05-04 19:31 | 51.35895 | 7.13888 | 24038 ft | 364 kts | 232° |
| 2026-05-04 19:31 | 51.34379 | 7.10625 | 23817 ft | 365 kts | 232° |
| 2026-05-04 19:31 | 51.32862 | 7.07367 | 23591 ft | 365 kts | 232° |
| 2026-05-04 19:31 | 51.31354 | 7.04134 | 23350 ft | 365 kts | 232° |
| 2026-05-04 19:32 | 51.29835 | 7.00893 | 23124 ft | 364 kts | 232° |
| 2026-05-04 19:32 | 51.28318 | 6.97667 | 22898 ft | 363 kts | 232° |
| 2026-05-04 19:32 | 51.26804 | 6.94446 | 22616 ft | 361 kts | 232° |
| 2026-05-04 19:32 | 51.25299 | 6.91241 | 22346 ft | 360 kts | 232° |
| 2026-05-04 19:33 | 51.23811 | 6.88075 | 22091 ft | 359 kts | 232° |
| 2026-05-04 19:33 | 51.22314 | 6.84896 | 21824 ft | 358 kts | 232° |
| 2026-05-04 19:33 | 51.20818 | 6.81731 | 21556 ft | 357 kts | 232° |
| 2026-05-04 19:33 | 51.19323 | 6.78577 | 21287 ft | 356 kts | 232° |
| 2026-05-04 19:34 | 51.17834 | 6.75433 | 21044 ft | 355 kts | 232° |
| 2026-05-04 19:34 | 51.16353 | 6.72300 | 20797 ft | 354 kts | 232° |
| 2026-05-04 19:34 | 51.14875 | 6.69180 | 20545 ft | 352 kts | 232° |
| 2026-05-04 19:34 | 51.13402 | 6.66076 | 20283 ft | 350 kts | 232° |
| 2026-05-04 19:35 | 51.11934 | 6.62993 | 20053 ft | 349 kts | 231° |
| 2026-05-04 19:35 | 51.10467 | 6.59918 | 19807 ft | 349 kts | 231° |
| 2026-05-04 19:35 | 51.08996 | 6.56857 | 19564 ft | 347 kts | 229° |
| 2026-05-04 19:35 | 51.07345 | 6.54072 | 19322 ft | 346 kts | 224° |
| 2026-05-04 19:36 | 51.05643 | 6.51379 | 19081 ft | 345 kts | 224° |
| 2026-05-04 19:36 | 51.03944 | 6.48695 | 18844 ft | 344 kts | 224° |
| 2026-05-04 19:36 | 51.02250 | 6.46015 | 18608 ft | 343 kts | 224° |
| 2026-05-04 19:36 | 51.00583 | 6.43383 | 18377 ft | 342 kts | 224° |
| 2026-05-04 19:37 | 50.98895 | 6.40724 | 18121 ft | 341 kts | 224° |
| 2026-05-04 19:37 | 50.97211 | 6.38075 | 17849 ft | 340 kts | 224° |
| 2026-05-04 19:37 | 50.95534 | 6.35436 | 17594 ft | 339 kts | 224° |
| 2026-05-04 19:37 | 50.93841 | 6.32772 | 17321 ft | 338 kts | 224° |
| 2026-05-04 19:38 | 50.92178 | 6.30157 | 17059 ft | 336 kts | 224° |
| 2026-05-04 19:38 | 50.90563 | 6.27482 | 16794 ft | 336 kts | 231° |
| 2026-05-04 19:38 | 50.89473 | 6.24285 | 16540 ft | 337 kts | 250° |
| 2026-05-04 19:38 | 50.89128 | 6.20618 | 16284 ft | 340 kts | 268° |
| 2026-05-04 19:39 | 50.89176 | 6.16878 | 16051 ft | 339 kts | 269° |
| 2026-05-04 19:39 | 50.89233 | 6.13145 | 15961 ft | 338 kts | 269° |
| 2026-05-04 19:39 | 50.89288 | 6.09409 | 15977 ft | 341 kts | 270° |
| 2026-05-04 19:39 | 50.89339 | 6.05645 | 15976 ft | 342 kts | 270° |
| 2026-05-04 19:40 | 50.89387 | 6.01876 | 15975 ft | 343 kts | 270° |
| 2026-05-04 19:40 | 50.89433 | 5.98099 | 15978 ft | 343 kts | 270° |
| 2026-05-04 19:40 | 50.89475 | 5.94327 | 15974 ft | 343 kts | 270° |
| 2026-05-04 19:40 | 50.89517 | 5.90549 | 15978 ft | 343 kts | 270° |
| 2026-05-04 19:41 | 50.89556 | 5.86775 | 15975 ft | 343 kts | 269° |
| 2026-05-04 19:41 | 50.89593 | 5.83001 | 15975 ft | 343 kts | 269° |
| 2026-05-04 19:41 | 50.89629 | 5.79224 | 15974 ft | 343 kts | 269° |
| 2026-05-04 19:41 | 50.89664 | 5.75448 | 15976 ft | 343 kts | 269° |
| 2026-05-04 19:42 | 50.89699 | 5.71671 | 15972 ft | 343 kts | 269° |
| 2026-05-04 19:42 | 50.89734 | 5.67894 | 15976 ft | 343 kts | 269° |
| 2026-05-04 19:42 | 50.89771 | 5.64123 | 15980 ft | 343 kts | 270° |
| 2026-05-04 19:42 | 50.89808 | 5.60322 | 15976 ft | 346 kts | 270° |
| 2026-05-04 19:43 | 50.89843 | 5.56503 | 15971 ft | 347 kts | 270° |
| 2026-05-04 19:43 | 50.89877 | 5.52681 | 15972 ft | 347 kts | 270° |
| 2026-05-04 19:43 | 50.89911 | 5.48850 | 15973 ft | 348 kts | 270° |
| 2026-05-04 19:43 | 50.89938 | 5.45020 | 15968 ft | 348 kts | 270° |
| 2026-05-04 19:44 | 50.89962 | 5.41194 | 15967 ft | 348 kts | 270° |
| 2026-05-04 19:44 | 50.89984 | 5.37369 | 15967 ft | 347 kts | 270° |
| 2026-05-04 19:44 | 50.90006 | 5.33539 | 15967 ft | 347 kts | 270° |
| 2026-05-04 19:44 | 50.90028 | 5.29715 | 15968 ft | 347 kts | 270° |
| 2026-05-04 19:45 | 50.90051 | 5.25887 | 15974 ft | 348 kts | 270° |
| 2026-05-04 19:45 | 50.90073 | 5.22059 | 15971 ft | 348 kts | 270° |
| 2026-05-04 19:45 | 50.90093 | 5.18229 | 15974 ft | 348 kts | 270° |
| 2026-05-04 19:45 | 50.90110 | 5.14402 | 15973 ft | 348 kts | 270° |
| 2026-05-04 19:46 | 50.90124 | 5.10570 | 15970 ft | 348 kts | 270° |
| 2026-05-04 19:46 | 50.90138 | 5.06743 | 15970 ft | 348 kts | 270° |
| 2026-05-04 19:46 | 50.90152 | 5.02931 | 15968 ft | 348 kts | 270° |
| 2026-05-04 19:46 | 50.90166 | 4.99083 | 15973 ft | 348 kts | 270° |
| 2026-05-04 19:47 | 50.90178 | 4.95251 | 15789 ft | 347 kts | 271° |
| 2026-05-04 19:47 | 50.90196 | 4.91452 | 15416 ft | 344 kts | 271° |
| 2026-05-04 19:47 | 50.90208 | 4.87678 | 15031 ft | 341 kts | 271° |
| 2026-05-04 19:47 | 50.90215 | 4.83938 | 14649 ft | 338 kts | 272° |
| 2026-05-04 19:48 | 50.90615 | 4.80317 | 14276 ft | 333 kts | 293° |
| 2026-05-04 19:48 | 50.91839 | 4.77279 | 13917 ft | 327 kts | 316° |
| 2026-05-04 19:48 | 50.93662 | 4.75187 | 13396 ft | 325 kts | 331° |
| 2026-05-04 19:48 | 50.95633 | 4.73464 | 12834 ft | 317 kts | 333° |
| 2026-05-04 19:49 | 50.97551 | 4.71826 | 12182 ft | 311 kts | 333° |
| 2026-05-04 19:49 | 50.99446 | 4.70219 | 11488 ft | 307 kts | 332° |
| 2026-05-04 19:49 | 51.01395 | 4.68887 | 10739 ft | 304 kts | 349° |
| 2026-05-04 19:49 | 51.03484 | 4.68847 | 10008 ft | 301 kts | 14° |
| 2026-05-04 19:50 | 51.05330 | 4.70172 | 9203 ft | 298 kts | 38° |
| 2026-05-04 19:50 | 51.06676 | 4.72660 | 8304 ft | 300 kts | 63° |
| 2026-05-04 19:50 | 51.07448 | 4.75743 | 7511 ft | 298 kts | 70° |
| 2026-05-04 19:50 | 51.08109 | 4.78826 | 6889 ft | 291 kts | 71° |
| 2026-05-04 19:51 | 51.08717 | 4.81858 | 6269 ft | 284 kts | 77° |
| 2026-05-04 19:51 | 51.08703 | 4.84941 | 5625 ft | 280 kts | 104° |
| 2026-05-04 19:51 | 51.07812 | 4.87637 | 4998 ft | 276 kts | 133° |
| 2026-05-04 19:51 | 51.06272 | 4.89260 | 4723 ft | 259 kts | 158° |
| 2026-05-04 19:52 | 51.04618 | 4.90147 | 4466 ft | 244 kts | 162° |
| 2026-05-04 19:52 | 51.03037 | 4.90898 | 4211 ft | 231 kts | 162° |
| 2026-05-04 19:52 | 51.01509 | 4.91393 | 3943 ft | 220 kts | 182° |
| 2026-05-04 19:52 | 51.00042 | 4.90889 | 3698 ft | 216 kts | 204° |
| 2026-05-04 19:53 | 50.98806 | 4.89571 | 3448 ft | 215 kts | 226° |
| 2026-05-04 19:53 | 50.97967 | 4.87632 | 3201 ft | 213 kts | 249° |
| 2026-05-04 19:53 | 50.97458 | 4.85438 | 3045 ft | 211 kts | 251° |
| 2026-05-04 19:53 | 50.96964 | 4.83254 | 3004 ft | 210 kts | 251° |
| 2026-05-04 19:54 | 50.96469 | 4.81071 | 3009 ft | 210 kts | 251° |
| 2026-05-04 19:54 | 50.95973 | 4.78890 | 3012 ft | 210 kts | 251° |
| 2026-05-04 19:54 | 50.95476 | 4.76707 | 3004 ft | 210 kts | 251° |
| 2026-05-04 19:54 | 50.94991 | 4.74579 | 2982 ft | 200 kts | 251° |
| 2026-05-04 19:55 | 50.94523 | 4.72530 | 2832 ft | 195 kts | 251° |
| 2026-05-04 19:55 | 50.94069 | 4.70540 | 2600 ft | 190 kts | 251° |
| 2026-05-04 19:55 | 50.93624 | 4.68592 | 2330 ft | 185 kts | 252° |
| 2026-05-04 19:55 | 50.93188 | 4.66689 | 2081 ft | 178 kts | 253° |
| 2026-05-04 19:56 | 50.92779 | 4.64904 | 1848 ft | 167 kts | 253° |
| 2026-05-04 19:56 | 50.92392 | 4.63213 | 1633 ft | 160 kts | 253° |
| 2026-05-04 19:56 | 50.92016 | 4.61575 | 1421 ft | 157 kts | 253° |
| 2026-05-04 19:56 | 50.91646 | 4.59956 | 1211 ft | 156 kts | 253° |
| 2026-05-04 19:57 | 50.91281 | 4.58350 | 997 ft | 154 kts | 254° |
| 2026-05-04 19:57 | 50.90922 | 4.56794 | 792 ft | 151 kts | 254° |
| 2026-05-04 19:57 | 50.90562 | 4.55223 | 587 ft | 150 kts | 252° |
| 2026-05-04 19:57 | 50.90203 | 4.53665 | 378 ft | 151 kts | 250° |
| 2026-05-04 19:58 | 50.89848 | 4.52117 | 206 ft | 148 kts | 249° |
| 2026-05-04 19:58 | 50.89528 | 4.50745 | 175 ft | 110 kts | 250° |
| 2026-05-04 19:58 | 50.89319 | 4.49862 | 177 ft | 61 kts | 249° |